createdAt,value
2018-10-07T00:00:17.798Z,97637.00
2018-10-07T00:02:47.931Z,97637.00
2018-10-07T00:05:18.008Z,97637.00
2018-10-07T00:07:48.210Z,97639.00
2018-10-07T00:10:18.608Z,97642.00
2018-10-07T00:12:48.674Z,97635.00
2018-10-07T00:15:18.767Z,97634.00
2018-10-07T00:17:48.979Z,97635.00
2018-10-07T00:20:19.249Z,97629.00
2018-10-07T00:22:49.265Z,97627.00
2018-10-07T00:25:19.347Z,97627.00
2018-10-07T00:27:49.397Z,97628.00
2018-10-07T00:30:19.494Z,97626.00
2018-10-07T00:32:49.720Z,97628.00
2018-10-07T00:35:19.736Z,97623.00
2018-10-07T00:37:49.792Z,97629.00
2018-10-07T00:40:19.841Z,97624.00
2018-10-07T00:42:49.994Z,97619.00
2018-10-07T00:45:20.097Z,97620.00
2018-10-07T00:47:50.150Z,97622.00
2018-10-07T00:50:20.285Z,97618.00
2018-10-07T00:52:50.538Z,97621.00
2018-10-07T00:55:20.823Z,97622.00
2018-10-07T00:57:50.957Z,97625.00
2018-10-07T01:00:21.147Z,97624.00
2018-10-07T01:02:51.191Z,97619.00
2018-10-07T01:05:21.290Z,97625.00
2018-10-07T01:07:51.281Z,97630.00
2018-10-07T01:10:21.391Z,97627.00
2018-10-07T01:12:51.531Z,97624.00
2018-10-07T01:15:21.621Z,97615.00
2018-10-07T01:17:51.651Z,97614.00
2018-10-07T01:20:21.874Z,97616.00
2018-10-07T01:22:52.043Z,97615.00
2018-10-07T01:25:22.158Z,97617.00
2018-10-07T01:27:52.320Z,97627.00
2018-10-07T01:30:23.192Z,97629.00
2018-10-07T01:32:55.146Z,97639.00
2018-10-07T01:35:25.590Z,97634.00
2018-10-07T01:37:55.623Z,97637.00
2018-10-07T01:40:25.762Z,97634.00
2018-10-07T01:42:55.857Z,97639.00
2018-10-07T01:45:25.924Z,97643.00
2018-10-07T01:47:55.891Z,97637.00
2018-10-07T01:50:25.888Z,97636.00
2018-10-07T01:52:55.928Z,97637.00
2018-10-07T01:55:25.944Z,97636.00
2018-10-07T01:57:56.020Z,97635.00
2018-10-07T02:00:26.014Z,97632.00
2018-10-07T02:02:56.120Z,97633.00
2018-10-07T02:05:26.151Z,97639.00
2018-10-07T02:07:56.266Z,97636.00
2018-10-07T02:10:26.451Z,97634.00
2018-10-07T02:12:56.476Z,97629.00
2018-10-07T02:15:26.545Z,97631.00
2018-10-07T02:17:56.768Z,97632.00
2018-10-07T02:20:27.009Z,97634.00
2018-10-07T02:22:57.061Z,97635.00
2018-10-07T02:25:27.275Z,97644.00
2018-10-07T02:27:57.389Z,97645.00
2018-10-07T02:30:27.504Z,97644.00
2018-10-07T02:32:57.539Z,97640.00
2018-10-07T02:35:27.897Z,97635.00
2018-10-07T02:37:58.282Z,97639.00
2018-10-07T02:40:28.472Z,97654.00
2018-10-07T02:42:58.678Z,97654.00
2018-10-07T02:45:28.885Z,97657.00
2018-10-07T02:47:58.892Z,97656.00
2018-10-07T02:50:29.011Z,97659.00
2018-10-07T02:52:59.029Z,97663.00
2018-10-07T02:55:31.743Z,97669.00
2018-10-07T02:58:04.354Z,97668.00
2018-10-07T03:00:34.417Z,97671.00
2018-10-07T03:03:04.453Z,97672.00
2018-10-07T03:05:34.623Z,97672.00
2018-10-07T03:08:05.080Z,97677.00
2018-10-07T03:10:35.103Z,97672.00
2018-10-07T03:13:05.135Z,97676.00
2018-10-07T03:15:35.222Z,97675.00
2018-10-07T03:18:05.379Z,97669.00
2018-10-07T03:20:35.385Z,97673.00
2018-10-07T03:23:05.750Z,97675.00
2018-10-07T03:25:35.851Z,97669.00
2018-10-07T03:28:05.893Z,97675.00
2018-10-07T03:30:36.003Z,97678.00
2018-10-07T03:33:06.051Z,97673.00
2018-10-07T03:35:36.050Z,97678.00
2018-10-07T03:38:06.083Z,97678.00
2018-10-07T03:40:36.186Z,97686.00
2018-10-07T03:43:06.326Z,97686.00
2018-10-07T03:45:36.454Z,97693.00
2018-10-07T03:48:06.613Z,97693.00
2018-10-07T03:50:36.619Z,97694.00
2018-10-07T03:53:07.052Z,97695.00
2018-10-07T03:55:37.114Z,97699.00
2018-10-07T03:58:07.204Z,97700.00
2018-10-07T04:00:37.491Z,97703.00
2018-10-07T04:03:07.766Z,97710.00
2018-10-07T04:05:37.812Z,97714.00
2018-10-07T04:08:08.142Z,97715.00
2018-10-07T04:10:38.465Z,97715.00
2018-10-07T04:13:08.464Z,97721.00
2018-10-07T04:15:38.926Z,97719.00
2018-10-07T04:18:09.021Z,97721.00
2018-10-07T04:20:39.063Z,97725.00
2018-10-07T04:23:09.159Z,97733.00
2018-10-07T04:25:39.230Z,97734.00
2018-10-07T04:28:09.251Z,97733.00
2018-10-07T04:30:39.369Z,97739.00
2018-10-07T04:33:09.402Z,97739.00
2018-10-07T04:35:39.446Z,97738.00
2018-10-07T04:38:09.553Z,97737.00
2018-10-07T04:40:39.558Z,97738.00
2018-10-07T04:43:09.557Z,97738.00
2018-10-07T04:45:39.583Z,97740.00
2018-10-07T04:48:09.726Z,97740.00
2018-10-07T04:50:39.731Z,97742.00
2018-10-07T04:53:09.696Z,97745.00
2018-10-07T04:55:39.731Z,97744.00
2018-10-07T04:58:09.870Z,97753.00
2018-10-07T05:00:40.029Z,97753.00
2018-10-07T05:03:10.069Z,97755.00
2018-10-07T05:05:40.158Z,97757.00
2018-10-07T05:08:10.243Z,97756.00
2018-10-07T05:10:46.476Z,97757.00
2018-10-07T05:13:27.376Z,97757.00
2018-10-07T05:16:00.078Z,97759.00
2018-10-07T05:18:30.660Z,97761.00
2018-10-07T05:21:00.960Z,97759.00
2018-10-07T05:23:30.951Z,97763.00
2018-10-07T05:26:01.035Z,97771.00
2018-10-07T05:28:31.254Z,97770.00
2018-10-07T05:31:02.216Z,97768.00
2018-10-07T05:33:32.352Z,97774.00
2018-10-07T05:36:02.444Z,97769.00
2018-10-07T05:38:32.440Z,97768.00
2018-10-07T05:41:02.506Z,97772.00
2018-10-07T05:43:32.589Z,97774.00
2018-10-07T05:46:02.697Z,97776.00
2018-10-07T05:48:32.755Z,97779.00
2018-10-07T05:51:02.830Z,97779.00
2018-10-07T05:53:32.849Z,97780.00
2018-10-07T05:56:02.982Z,97782.00
2018-10-07T05:58:33.930Z,97783.00
2018-10-07T06:01:39.011Z,97794.00
2018-10-07T06:04:30.240Z,97796.00
2018-10-07T06:07:02.604Z,97804.00
2018-10-07T06:09:35.888Z,97809.00
2018-10-07T06:12:06.204Z,97813.00
2018-10-07T06:14:53.158Z,97815.00
2018-10-07T06:17:23.134Z,97819.00
2018-10-07T06:22:33.843Z,97823.00
2018-10-07T06:25:03.963Z,97829.00
2018-10-07T06:27:34.024Z,97828.00
2018-10-07T06:30:04.158Z,97831.00
2018-10-07T06:32:34.337Z,97832.00
2018-10-07T06:35:04.680Z,97839.00
2018-10-07T06:37:34.784Z,97841.00
2018-10-07T06:40:04.875Z,97839.00
2018-10-07T06:42:35.139Z,97842.00
2018-10-07T06:45:05.396Z,97848.00
2018-10-07T06:47:35.413Z,97854.00
2018-10-07T06:50:08.687Z,97856.00
2018-10-07T06:52:38.821Z,97857.00
2018-10-07T06:55:08.816Z,97858.00
2018-10-07T06:57:38.909Z,97862.00
2018-10-07T07:00:09.852Z,97862.00
2018-10-07T07:02:40.002Z,97866.00
2018-10-07T07:05:10.994Z,97861.00
2018-10-07T07:07:41.062Z,97869.00
2018-10-07T07:10:11.190Z,97873.00
2018-10-07T07:12:41.300Z,97883.00
2018-10-07T07:15:11.382Z,97887.00
2018-10-07T07:17:41.385Z,97888.00
2018-10-07T07:20:11.682Z,97884.00
2018-10-07T07:22:41.695Z,97890.00
2018-10-07T07:25:11.887Z,97889.00
2018-10-07T07:27:42.112Z,97890.00
2018-10-07T07:30:13.379Z,97897.00
2018-10-07T07:32:43.482Z,97896.00
2018-10-07T07:35:13.471Z,97904.00
2018-10-07T07:37:43.569Z,97905.00
2018-10-07T07:40:13.601Z,97903.00
2018-10-07T07:42:43.635Z,97905.00
2018-10-07T07:45:13.747Z,97910.00
2018-10-07T07:47:43.801Z,97910.00
2018-10-07T07:50:13.784Z,97915.00
2018-10-07T07:52:43.849Z,97920.00
2018-10-07T07:55:13.969Z,97936.00
2018-10-07T07:57:43.993Z,97942.00
2018-10-07T08:00:14.093Z,97945.00
2018-10-07T08:02:44.177Z,97952.00
2018-10-07T08:05:14.295Z,97955.00
2018-10-07T08:07:44.401Z,97957.00
2018-10-07T08:10:14.437Z,97965.00
2018-10-07T08:12:44.441Z,97966.00
2018-10-07T08:15:14.634Z,97972.00
2018-10-07T08:17:44.800Z,97971.00
2018-10-07T08:20:15.053Z,97967.00
2018-10-07T08:22:45.033Z,97966.00
2018-10-07T08:25:15.109Z,97970.00
2018-10-07T08:27:45.319Z,97972.00
2018-10-07T08:30:15.921Z,97977.00
2018-10-07T08:32:46.163Z,97982.00
2018-10-07T08:35:16.371Z,97985.00
2018-10-07T08:37:46.383Z,97977.00
2018-10-07T08:40:16.431Z,97984.00
2018-10-07T08:42:46.695Z,97990.00
2018-10-07T08:45:16.774Z,97989.00
2018-10-07T08:47:46.944Z,97989.00
2018-10-07T08:50:17.065Z,97990.00
2018-10-07T08:52:47.182Z,97990.00
2018-10-07T08:55:17.226Z,97996.00
2018-10-07T08:57:47.258Z,97999.00
2018-10-07T09:00:17.316Z,98008.00
2018-10-07T09:02:47.440Z,98013.00
2018-10-07T09:05:17.613Z,98014.00
2018-10-07T09:07:47.798Z,98017.00
2018-10-07T09:10:17.862Z,98017.00
2018-10-07T09:12:47.981Z,98023.00
2018-10-07T09:15:18.216Z,98023.00
2018-10-07T09:17:48.422Z,98022.00
2018-10-07T09:20:18.627Z,98014.00
2018-10-07T09:22:48.674Z,98013.00
2018-10-07T09:25:18.877Z,98016.00
2018-10-07T09:27:51.104Z,98015.00
2018-10-07T09:30:21.130Z,98023.00
2018-10-07T09:32:51.196Z,98026.00
2018-10-07T09:35:21.256Z,98027.00
2018-10-07T09:37:51.482Z,98026.00
2018-10-07T09:40:21.614Z,98027.00
2018-10-07T09:42:51.848Z,98031.00
2018-10-07T09:45:22.106Z,98034.00
2018-10-07T09:47:52.118Z,98033.00
2018-10-07T09:50:22.703Z,98027.00
2018-10-07T09:52:53.016Z,98030.00
2018-10-07T09:55:23.184Z,98026.00
2018-10-07T09:57:53.249Z,98033.00
2018-10-07T10:00:28.618Z,98031.00
2018-10-07T10:02:58.796Z,98028.00
2018-10-07T10:05:28.784Z,98023.00
2018-10-07T10:07:59.015Z,98026.00
2018-10-07T10:10:29.460Z,98020.00
2018-10-07T10:12:59.578Z,98020.00
2018-10-07T10:15:29.599Z,98020.00
2018-10-07T10:18:06.252Z,98018.00
2018-10-07T10:20:51.552Z,98018.00
2018-10-07T10:23:41.602Z,98011.00
2018-10-07T10:26:18.898Z,98010.00
2018-10-07T10:29:07.905Z,98019.00
2018-10-07T10:31:57.713Z,98012.00
2018-10-07T10:35:50.838Z,98002.00
2018-10-07T10:38:33.258Z,97999.00
2018-10-07T10:41:12.632Z,98001.00
2018-10-07T10:43:53.303Z,98000.00
2018-10-07T10:46:40.421Z,97995.00
2018-10-07T10:49:22.850Z,98000.00
2018-10-07T10:52:33.166Z,98000.00
2018-10-07T10:55:16.376Z,97992.00
2018-10-07T10:57:51.530Z,97989.00
2018-10-07T11:00:28.105Z,97990.00
2018-10-07T11:05:15.736Z,97996.00
2018-10-07T11:09:13.639Z,97998.00
2018-10-07T11:12:27.928Z,98003.00
2018-10-07T11:15:05.526Z,98002.00
2018-10-07T11:17:54.660Z,98000.00
2018-10-07T11:20:37.745Z,97995.00
2018-10-07T11:24:15.984Z,97994.00
2018-10-07T11:27:01.306Z,97995.00
2018-10-07T11:32:43.379Z,97994.00
2018-10-07T11:35:33.959Z,97995.00
2018-10-07T11:38:14.664Z,98000.00
2018-10-07T11:41:01.150Z,97994.00
2018-10-07T11:43:51.951Z,97993.00
2018-10-07T11:48:07.491Z,97995.00
2018-10-07T11:50:57.661Z,98000.00
2018-10-07T11:53:49.245Z,97999.00
2018-10-07T11:56:19.379Z,98001.00
2018-10-07T11:58:49.456Z,98001.00
2018-10-07T12:01:20.683Z,98000.00
2018-10-07T12:03:50.887Z,98006.00
2018-10-07T12:06:21.044Z,97999.00
2018-10-07T12:08:51.599Z,97998.00
2018-10-07T12:11:21.708Z,97994.00
2018-10-07T12:13:51.838Z,97994.00
2018-10-07T12:16:21.998Z,97997.00
2018-10-07T12:18:51.959Z,97994.00
2018-10-07T12:21:22.115Z,97994.00
2018-10-07T12:23:52.230Z,97992.00
2018-10-07T12:26:22.283Z,97989.00
2018-10-07T12:28:52.451Z,97994.00
2018-10-07T12:31:22.491Z,97993.00
2018-10-07T12:33:52.583Z,97996.00
2018-10-07T12:36:22.827Z,97994.00
2018-10-07T12:38:52.957Z,97989.00
2018-10-07T12:41:23.068Z,97992.00
2018-10-07T12:43:53.174Z,97995.00
2018-10-07T12:46:23.271Z,97994.00
2018-10-07T12:48:53.297Z,97992.00
2018-10-07T12:51:25.503Z,97992.00
2018-10-07T12:53:55.693Z,97991.00
2018-10-07T12:56:25.689Z,97996.00
2018-10-07T12:58:55.893Z,97989.00
2018-10-07T13:01:26.065Z,98002.00
2018-10-07T13:03:56.296Z,98001.00
2018-10-07T13:06:26.523Z,97993.00
2018-10-07T13:08:56.727Z,97996.00
2018-10-07T13:11:27.009Z,97998.00
2018-10-07T13:13:57.034Z,97997.00
2018-10-07T13:16:27.130Z,97997.00
2018-10-07T13:18:57.213Z,98000.00
2018-10-07T13:21:27.455Z,97996.00
2018-10-07T13:23:57.649Z,97999.00
2018-10-07T13:26:28.077Z,97995.00
2018-10-07T13:28:58.210Z,97997.00
2018-10-07T13:31:28.376Z,97995.00
2018-10-07T13:33:58.604Z,97988.00
2018-10-07T13:36:28.604Z,97993.00
2018-10-07T13:38:58.728Z,97998.00
2018-10-07T13:41:28.826Z,98010.00
2018-10-07T13:43:58.962Z,98005.00
2018-10-07T13:46:29.034Z,98008.00
2018-10-07T13:48:59.119Z,98008.00
2018-10-07T13:51:29.158Z,98010.00
2018-10-07T13:53:59.281Z,98010.00
2018-10-07T13:56:29.751Z,98009.00
2018-10-07T13:58:59.836Z,98006.00
2018-10-07T14:01:29.924Z,98006.00
2018-10-07T14:04:00.567Z,98011.00
2018-10-07T14:06:30.493Z,98008.00
2018-10-07T14:09:00.797Z,98007.00
2018-10-07T14:11:30.949Z,98006.00
2018-10-07T14:14:01.115Z,98006.00
2018-10-07T14:16:31.272Z,98004.00
2018-10-07T14:19:01.324Z,98010.00
2018-10-07T14:21:31.361Z,98011.00
2018-10-07T14:24:01.543Z,98009.00
2018-10-07T14:26:31.605Z,98006.00
2018-10-07T14:29:01.669Z,98015.00
2018-10-07T14:31:31.735Z,98012.00
2018-10-07T14:34:01.885Z,98006.00
2018-10-07T14:36:32.081Z,98011.00
2018-10-07T14:39:02.267Z,98008.00
2018-10-07T14:41:32.308Z,98011.00
2018-10-07T14:44:02.386Z,98010.00
2018-10-07T14:46:32.407Z,98015.00
2018-10-07T14:49:02.611Z,98013.00
2018-10-07T14:51:32.804Z,98021.00
2018-10-07T14:54:02.907Z,98029.00
2018-10-07T14:56:32.901Z,98038.00
2018-10-07T14:59:02.983Z,98042.00
2018-10-07T15:01:32.977Z,98040.00
2018-10-07T15:04:03.209Z,98041.00
2018-10-07T15:06:33.371Z,98041.00
2018-10-07T15:09:04.899Z,98040.00
2018-10-07T15:11:35.085Z,98045.00
2018-10-07T15:14:05.071Z,98051.00
2018-10-07T15:16:35.390Z,98049.00
2018-10-07T15:19:05.743Z,98043.00
2018-10-07T15:21:35.856Z,98046.00
2018-10-07T15:24:05.812Z,98047.00
2018-10-07T15:26:35.983Z,98046.00
2018-10-07T15:29:06.089Z,98052.00
2018-10-07T15:31:36.124Z,98055.00
2018-10-07T15:34:06.340Z,98066.00
2018-10-07T15:36:36.533Z,98069.00
2018-10-07T15:39:07.829Z,98063.00
2018-10-07T15:41:37.904Z,98065.00
2018-10-07T15:44:07.999Z,98070.00
2018-10-07T15:46:38.038Z,98075.00
2018-10-07T15:49:08.143Z,98083.00
2018-10-07T15:51:38.275Z,98086.00
2018-10-07T15:54:08.869Z,98094.00
2018-10-07T15:56:39.060Z,98097.00
2018-10-07T15:59:09.167Z,98099.00
2018-10-07T16:01:39.373Z,98098.00
2018-10-07T16:04:09.534Z,98103.00
2018-10-07T16:06:39.735Z,98103.00
2018-10-07T16:09:10.602Z,98103.00
2018-10-07T16:11:40.685Z,98112.00
2018-10-07T16:14:10.692Z,98113.00
2018-10-07T16:16:40.719Z,98118.00
2018-10-07T16:19:10.874Z,98124.00
2018-10-07T16:21:41.116Z,98126.00
2018-10-07T16:24:11.240Z,98133.00
2018-10-07T16:26:41.430Z,98139.00
2018-10-07T16:29:11.622Z,98147.00
2018-10-07T16:31:41.675Z,98150.00
2018-10-07T16:34:11.841Z,98159.00
2018-10-07T16:36:41.979Z,98163.00
2018-10-07T16:39:12.038Z,98172.00
2018-10-07T16:41:42.112Z,98178.00
2018-10-07T16:44:12.456Z,98187.00
2018-10-07T16:46:42.608Z,98192.00
2018-10-07T16:49:12.731Z,98202.00
2018-10-07T16:51:42.844Z,98208.00
2018-10-07T16:54:12.904Z,98214.00
2018-10-07T16:56:42.992Z,98223.00
2018-10-07T16:59:13.181Z,98225.00
2018-10-07T17:01:43.197Z,98234.00
2018-10-07T17:04:13.451Z,98244.00
2018-10-07T17:06:43.490Z,98249.00
2018-10-07T17:09:13.676Z,98252.00
2018-10-07T17:11:44.253Z,98255.00
2018-10-07T17:14:14.437Z,98264.00
2018-10-07T17:16:44.574Z,98270.00
2018-10-07T17:19:14.787Z,98277.00
2018-10-07T17:21:44.886Z,98278.00
2018-10-07T17:24:15.166Z,98283.00
2018-10-07T17:26:45.224Z,98285.00
2018-10-07T17:29:15.360Z,98299.00
2018-10-07T17:31:45.470Z,98300.00
2018-10-07T17:34:15.536Z,98302.00
2018-10-07T17:36:45.727Z,98302.00
2018-10-07T17:39:16.709Z,98305.00
2018-10-07T17:41:46.979Z,98319.00
2018-10-07T17:44:17.029Z,98323.00
2018-10-07T17:46:47.272Z,98324.00
2018-10-07T17:49:17.426Z,98324.00
2018-10-07T17:51:47.501Z,98326.00
2018-10-07T17:54:18.006Z,98328.00
2018-10-07T17:56:48.493Z,98337.00
2018-10-07T17:59:18.788Z,98342.00
2018-10-07T18:01:49.091Z,98350.00
2018-10-07T18:04:19.384Z,98348.00
2018-10-07T18:06:49.759Z,98353.00
2018-10-07T18:09:20.058Z,98357.00
2018-10-07T18:11:50.315Z,98356.00
2018-10-07T18:14:21.220Z,98362.00
2018-10-07T18:16:51.391Z,98365.00
2018-10-07T18:19:22.853Z,98365.00
2018-10-07T18:21:53.049Z,98369.00
2018-10-07T18:24:23.264Z,98366.00
2018-10-07T18:26:53.426Z,98369.00
2018-10-07T18:29:23.878Z,98370.00
2018-10-07T18:31:54.015Z,98376.00
2018-10-07T18:34:24.289Z,98383.00
2018-10-07T18:36:54.372Z,98391.00
2018-10-07T18:39:24.455Z,98404.00
2018-10-07T18:41:54.528Z,98404.00
2018-10-07T18:44:24.869Z,98405.00
2018-10-07T18:46:55.134Z,98411.00
2018-10-07T18:49:25.664Z,98415.00
2018-10-07T18:51:55.962Z,98419.00
2018-10-07T18:54:26.157Z,98427.00
2018-10-07T18:56:56.357Z,98424.00
2018-10-07T18:59:26.485Z,98430.00
2018-10-07T19:01:56.636Z,98440.00
2018-10-07T19:04:26.890Z,98440.00
2018-10-07T19:06:57.059Z,98454.00
2018-10-07T19:09:27.212Z,98455.00
2018-10-07T19:11:57.411Z,98452.00
2018-10-07T19:14:27.674Z,98448.00
2018-10-07T19:16:57.890Z,98456.00
2018-10-07T19:19:27.929Z,98452.00
2018-10-07T19:21:58.114Z,98455.00
2018-10-07T19:24:28.264Z,98456.00
2018-10-07T19:26:59.465Z,98462.00
2018-10-07T19:29:29.636Z,98464.00
2018-10-07T19:31:59.729Z,98471.00
2018-10-07T19:34:29.731Z,98474.00
2018-10-07T19:36:59.883Z,98477.00
2018-10-07T19:39:29.971Z,98477.00
2018-10-07T19:42:00.204Z,98483.00
2018-10-07T19:44:30.257Z,98486.00
2018-10-07T19:47:00.430Z,98487.00
2018-10-07T19:49:30.661Z,98491.00
2018-10-07T19:52:00.758Z,98495.00
2018-10-07T19:54:30.830Z,98499.00
2018-10-07T19:57:00.973Z,98500.00
2018-10-07T19:59:31.190Z,98508.00
2018-10-07T20:02:01.405Z,98514.00
2018-10-07T20:04:31.465Z,98517.00
2018-10-07T20:07:01.653Z,98518.00
2018-10-07T20:09:31.767Z,98517.00
2018-10-07T20:12:02.048Z,98524.00
2018-10-07T20:14:32.102Z,98529.00
2018-10-07T20:17:02.250Z,98528.00
2018-10-07T20:19:32.448Z,98522.00
2018-10-07T20:22:02.471Z,98522.00
2018-10-07T20:24:33.097Z,98517.00
2018-10-07T20:27:03.345Z,98515.00
2018-10-07T20:29:33.551Z,98518.00
2018-10-07T20:32:04.118Z,98525.00
2018-10-07T20:34:34.341Z,98526.00
2018-10-07T20:37:04.537Z,98523.00
2018-10-07T20:39:34.583Z,98527.00
2018-10-07T20:42:04.711Z,98536.00
2018-10-07T20:44:34.938Z,98540.00
2018-10-07T20:47:05.056Z,98533.00
2018-10-07T20:49:35.140Z,98527.00
2018-10-07T20:52:05.638Z,98533.00
2018-10-07T20:54:35.657Z,98534.00
2018-10-07T20:57:05.993Z,98531.00
2018-10-07T20:59:35.918Z,98524.00
2018-10-07T21:02:06.090Z,98531.00
2018-10-07T21:04:36.176Z,98525.00
2018-10-07T21:07:06.466Z,98524.00
2018-10-07T21:09:36.642Z,98520.00
2018-10-07T21:12:06.785Z,98519.00
2018-10-07T21:14:36.826Z,98522.00
2018-10-07T21:17:07.101Z,98520.00
2018-10-07T21:19:37.277Z,98514.00
2018-10-07T21:22:07.451Z,98515.00
2018-10-07T21:24:37.700Z,98517.00
2018-10-07T21:27:07.940Z,98513.00
2018-10-07T21:29:38.067Z,98510.00
2018-10-07T21:32:08.234Z,98516.00
2018-10-07T21:34:38.378Z,98508.00
2018-10-07T21:37:08.592Z,98509.00
2018-10-07T21:39:38.794Z,98512.00
2018-10-07T21:42:08.957Z,98513.00
2018-10-07T21:44:39.017Z,98513.00
2018-10-07T21:47:09.043Z,98516.00
2018-10-07T21:49:39.301Z,98521.00
2018-10-07T21:52:09.477Z,98530.00
2018-10-07T21:54:39.771Z,98532.00
2018-10-07T21:57:09.935Z,98535.00
2018-10-07T21:59:40.014Z,98535.00
2018-10-07T22:02:10.151Z,98534.00
2018-10-07T22:04:40.148Z,98537.00
2018-10-07T22:07:10.358Z,98536.00
2018-10-07T22:09:40.383Z,98531.00
2018-10-07T22:12:10.571Z,98531.00
2018-10-07T22:14:40.577Z,98535.00
2018-10-07T22:17:10.592Z,98538.00
2018-10-07T22:19:40.591Z,98537.00
2018-10-07T22:22:10.717Z,98534.00
2018-10-07T22:24:40.852Z,98531.00
2018-10-07T22:27:10.949Z,98526.00
2018-10-07T22:29:41.115Z,98528.00
2018-10-07T22:32:11.212Z,98531.00
2018-10-07T22:34:41.329Z,98543.00
2018-10-07T22:37:11.421Z,98550.00
2018-10-07T22:39:41.462Z,98543.00
2018-10-07T22:42:11.579Z,98537.00
2018-10-07T22:44:41.581Z,98538.00
2018-10-07T22:47:11.632Z,98534.00
2018-10-07T22:49:41.771Z,98538.00
2018-10-07T22:52:11.919Z,98537.00
2018-10-07T22:54:41.922Z,98541.00
2018-10-07T22:57:11.979Z,98541.00
2018-10-07T22:59:41.978Z,98543.00
2018-10-07T23:02:12.323Z,98535.00
2018-10-07T23:04:42.430Z,98538.00
2018-10-07T23:07:12.877Z,98537.00
2018-10-07T23:09:42.901Z,98533.00
2018-10-07T23:12:13.117Z,98540.00
2018-10-07T23:14:43.129Z,98541.00
2018-10-07T23:17:13.259Z,98542.00
2018-10-07T23:19:43.225Z,98543.00
2018-10-07T23:22:13.282Z,98541.00
2018-10-07T23:24:43.241Z,98542.00
2018-10-07T23:27:13.417Z,98544.00
2018-10-07T23:29:43.546Z,98539.00
2018-10-07T23:32:13.648Z,98539.00
2018-10-07T23:34:43.745Z,98540.00
2018-10-07T23:37:13.852Z,98537.00
2018-10-07T23:39:43.863Z,98538.00
2018-10-07T23:42:13.985Z,98540.00
2018-10-07T23:44:44.058Z,98538.00
2018-10-07T23:47:14.384Z,98538.00
2018-10-07T23:49:44.355Z,98548.00
2018-10-07T23:52:14.544Z,98551.00
2018-10-07T23:54:44.618Z,98558.00
2018-10-07T23:57:14.921Z,98559.00
2018-10-07T23:59:45.123Z,98564.00
